createdAt,value
2023-11-18T00:02:40.237Z,98009.56
2023-11-18T00:05:31.176Z,98000.78
2023-11-18T00:08:21.917Z,97999.84
2023-11-18T00:11:12.650Z,98012.97
2023-11-18T00:14:05.884Z,98012.38
2023-11-18T00:16:56.740Z,98017.81
2023-11-18T00:19:48.596Z,98013.81
2023-11-18T00:22:40.790Z,98016.22
2023-11-18T00:25:32.823Z,98017.16
2023-11-18T00:28:23.735Z,98020.38
2023-11-18T00:31:14.602Z,98025.19
2023-11-18T00:34:05.563Z,98023.25
2023-11-18T00:37:00.213Z,98025.66
2023-11-18T00:39:50.942Z,98027.88
2023-11-18T00:42:41.645Z,98024.84
2023-11-18T00:45:32.384Z,98015.84
2023-11-18T00:48:23.241Z,98030.56
2023-11-18T00:51:14.130Z,98029.44
2023-11-18T00:54:08.966Z,98027.81
2023-11-18T00:56:59.750Z,98027.66
2023-11-18T00:59:51.118Z,98039.81
2023-11-18T01:02:43.633Z,98024.75
2023-11-18T01:05:34.389Z,98032.25
2023-11-18T01:08:25.999Z,98034.31
2023-11-18T01:11:21.063Z,98033.34
2023-11-18T01:14:12.967Z,98024.06
2023-11-18T01:17:04.179Z,98021.34
2023-11-18T01:19:54.999Z,98026.31
2023-11-18T01:22:46.969Z,98021.97
2023-11-18T01:25:37.806Z,98024.34
2023-11-18T01:28:30.601Z,98023.41
2023-11-18T01:31:21.443Z,98021.47
2023-11-18T01:34:13.412Z,98019.22
2023-11-18T01:37:05.978Z,98012.19
2023-11-18T01:39:56.674Z,98014.75
2023-11-18T01:42:47.976Z,98016.66
2023-11-18T01:45:38.907Z,98017.63
2023-11-18T01:48:32.057Z,98011.84
2023-11-18T01:51:24.628Z,98006.34
2023-11-18T01:54:20.082Z,98006.53
2023-11-18T01:57:11.352Z,98005.41
2023-11-18T02:00:07.099Z,98007.63
2023-11-18T02:02:57.952Z,98005.38
2023-11-18T02:05:48.896Z,98010.78
2023-11-18T02:08:39.926Z,98010.44
2023-11-18T02:11:43.948Z,98007.69
2023-11-18T02:14:38.370Z,98010.13
2023-11-18T02:17:30.578Z,98007.09
2023-11-18T02:20:22.530Z,98009.81
2023-11-18T02:23:13.398Z,98008.69
2023-11-18T02:26:04.559Z,98010.44
2023-11-18T02:28:55.360Z,98016.56
2023-11-18T02:31:47.981Z,98021.38
2023-11-18T02:34:52.728Z,98027.03
2023-11-18T02:37:48.993Z,98030.09
2023-11-18T02:40:44.529Z,98032.34
2023-11-18T02:43:38.411Z,98031.88
2023-11-18T02:46:29.416Z,98036.66
2023-11-18T02:49:20.194Z,98032.16
2023-11-18T02:52:11.126Z,98038.88
2023-11-18T02:55:01.983Z,98039.53
2023-11-18T02:57:55.461Z,98040.50
2023-11-18T03:00:46.338Z,98048.19
2023-11-18T03:03:37.692Z,98048.66
2023-11-18T03:06:28.454Z,98051.22
2023-11-18T03:09:19.955Z,98046.72
2023-11-18T03:12:11.041Z,98049.75
2023-11-18T03:15:02.162Z,98048.44
2023-11-18T03:17:53.635Z,98057.59
2023-11-18T03:20:44.586Z,98060.59
2023-11-18T03:23:35.416Z,98053.53
2023-11-18T03:26:27.304Z,98050.97
2023-11-18T03:29:18.437Z,98055.91
2023-11-18T03:32:09.243Z,98061.41
2023-11-18T03:35:03.463Z,98070.06
2023-11-18T03:37:54.713Z,98065.09
2023-11-18T03:40:46.327Z,98068.97
2023-11-18T03:43:39.027Z,98062.56
2023-11-18T03:46:35.593Z,98068.53
2023-11-18T03:49:26.662Z,98076.44
2023-11-18T03:52:17.365Z,98075.44
2023-11-18T03:55:09.411Z,98074.94
2023-11-18T03:58:00.376Z,98069.63
2023-11-18T04:00:51.175Z,98079.75
2023-11-18T04:03:43.142Z,98082.47
2023-11-18T04:06:33.902Z,98083.44
2023-11-18T04:09:24.740Z,98081.19
2023-11-18T04:12:17.513Z,98079.59
2023-11-18T04:15:08.890Z,98078.81
2023-11-18T04:17:59.715Z,98079.47
2023-11-18T04:20:51.820Z,98081.84
2023-11-18T04:23:43.962Z,98078.47
2023-11-18T04:26:34.785Z,98085.72
2023-11-18T04:29:25.536Z,98078.63
2023-11-18T04:32:17.111Z,98087.16
2023-11-18T04:35:08.500Z,98084.59
2023-11-18T04:37:59.550Z,98079.47
2023-11-18T04:40:50.898Z,98082.63
2023-11-18T04:43:45.923Z,98077.69
2023-11-18T04:46:38.354Z,98080.59
2023-11-18T04:49:29.326Z,98082.50
2023-11-18T04:52:20.126Z,98086.50
2023-11-18T04:55:13.992Z,98086.50
2023-11-18T04:58:07.031Z,98089.88
2023-11-18T05:00:57.914Z,98090.66
2023-11-18T05:03:48.883Z,98086.81
2023-11-18T05:06:39.833Z,98088.41
2023-11-18T05:09:30.632Z,98085.03
2023-11-18T05:12:21.479Z,98091.13
2023-11-18T05:15:12.205Z,98095.66
2023-11-18T05:18:03.075Z,98099.81
2023-11-18T05:20:55.580Z,98097.41
2023-11-18T05:23:46.344Z,98104.78
2023-11-18T05:26:37.059Z,98100.63
2023-11-18T05:29:29.020Z,98115.38
2023-11-18T05:32:21.633Z,98109.97
2023-11-18T05:35:13.165Z,98116.38
2023-11-18T05:38:07.562Z,98123.63
2023-11-18T05:40:58.550Z,98121.25
2023-11-18T05:43:52.816Z,98132.16
2023-11-18T05:46:47.499Z,98144.38
2023-11-18T05:49:39.467Z,98144.88
2023-11-18T05:52:30.186Z,98149.19
2023-11-18T05:55:21.358Z,98163.28
2023-11-18T05:58:12.188Z,98160.25
2023-11-18T06:01:03.548Z,98162.16
2023-11-18T06:03:54.708Z,98155.59
2023-11-18T06:06:45.568Z,98156.88
2023-11-18T06:09:36.306Z,98173.38
2023-11-18T06:12:28.039Z,98165.84
2023-11-18T06:15:20.141Z,98177.53
2023-11-18T06:18:11.158Z,98181.06
2023-11-18T06:21:02.004Z,98192.13
2023-11-18T06:23:53.035Z,98196.94
2023-11-18T06:26:43.839Z,98201.56
2023-11-18T06:29:34.602Z,98205.91
2023-11-18T06:32:26.994Z,98216.47
2023-11-18T06:35:17.803Z,98208.97
2023-11-18T06:38:08.808Z,98205.91
2023-11-18T06:41:01.097Z,98203.00
2023-11-18T06:44:00.779Z,98205.44
2023-11-18T06:46:52.403Z,98203.84
2023-11-18T06:49:43.347Z,98201.91
2023-11-18T06:52:39.724Z,98209.75
2023-11-18T06:55:30.969Z,98215.84
2023-11-18T06:58:21.709Z,98224.50
2023-11-18T07:01:16.790Z,98220.66
2023-11-18T07:04:10.965Z,98229.47
2023-11-18T07:07:02.935Z,98232.03
2023-11-18T07:09:53.668Z,98229.31
2023-11-18T07:12:44.342Z,98237.16
2023-11-18T07:15:35.437Z,98233.81
2023-11-18T07:18:26.209Z,98234.13
2023-11-18T07:21:16.904Z,98229.16
2023-11-18T07:24:08.297Z,98223.66
2023-11-18T07:27:01.198Z,98225.91
2023-11-18T07:29:52.437Z,98226.72
2023-11-18T07:32:43.208Z,98231.53
2023-11-18T07:35:33.900Z,98222.06
2023-11-18T07:38:24.730Z,98216.44
2023-11-18T07:41:24.747Z,98225.28
2023-11-18T07:44:17.296Z,98226.41
2023-11-18T07:47:08.384Z,98219.19
2023-11-18T07:50:00.538Z,98222.56
2023-11-18T07:52:51.980Z,98226.72
2023-11-18T07:55:43.411Z,98224.81
2023-11-18T07:58:38.395Z,98224.16
2023-11-18T08:01:29.216Z,98227.38
2023-11-18T08:04:22.095Z,98227.03
2023-11-18T08:07:13.065Z,98232.63
2023-11-18T08:10:07.279Z,98229.59
2023-11-18T08:12:58.020Z,98238.44
2023-11-18T08:15:48.782Z,98254.63
2023-11-18T08:18:40.345Z,98261.69
2023-11-18T08:21:31.565Z,98261.38
2023-11-18T08:24:23.023Z,98263.94
2023-11-18T08:27:13.729Z,98269.72
2023-11-18T08:30:12.237Z,98271.63
2023-11-18T08:33:06.677Z,98273.22
2023-11-18T08:35:57.884Z,98275.00
2023-11-18T08:38:48.640Z,98274.03
2023-11-18T08:41:39.955Z,98280.78
2023-11-18T08:44:30.857Z,98287.97
2023-11-18T08:47:22.233Z,98290.22
2023-11-18T08:50:15.733Z,98298.22
2023-11-18T08:53:06.996Z,98311.84
2023-11-18T08:55:57.959Z,98317.94
2023-11-18T08:58:50.693Z,98313.72
2023-11-18T09:01:43.505Z,98329.91
2023-11-18T09:04:34.949Z,98340.78
2023-11-18T09:07:25.725Z,98342.56
2023-11-18T09:10:18.203Z,98345.59
2023-11-18T09:13:09.120Z,98349.41
2023-11-18T09:16:03.690Z,98368.28
2023-11-18T09:18:54.623Z,98363.81
2023-11-18T09:21:45.710Z,98369.53
2023-11-18T09:24:37.857Z,98373.72
2023-11-18T09:27:30.380Z,98370.69
2023-11-18T09:30:21.132Z,98373.75
2023-11-18T09:33:15.422Z,98373.41
2023-11-18T09:36:09.040Z,98377.13
2023-11-18T09:39:00.549Z,98381.06
2023-11-18T09:41:52.704Z,98379.78
2023-11-18T09:44:45.158Z,98375.41
2023-11-18T09:47:48.593Z,98381.50
2023-11-18T09:50:39.809Z,98383.25
2023-11-18T09:53:38.220Z,98383.25
2023-11-18T09:56:45.013Z,98390.94
2023-11-18T10:00:00.425Z,98377.94
2023-11-18T10:02:52.874Z,98385.50
2023-11-18T10:05:45.380Z,98388.56
2023-11-18T10:08:39.302Z,98388.09
2023-11-18T10:11:30.547Z,98391.19
2023-11-18T10:14:21.270Z,98393.47
2023-11-18T10:17:15.829Z,98386.63
2023-11-18T10:20:14.439Z,98394.66
2023-11-18T10:23:12.626Z,98399.50
2023-11-18T10:26:05.270Z,98397.56
2023-11-18T10:28:56.157Z,98398.72
2023-11-18T10:31:47.110Z,98413.66
2023-11-18T10:34:38.846Z,98418.31
2023-11-18T10:37:32.669Z,98416.72
2023-11-18T10:40:25.290Z,98418.50
2023-11-18T10:43:18.137Z,98418.16
2023-11-18T10:46:14.864Z,98425.25
2023-11-18T10:49:11.124Z,98422.97
2023-11-18T10:52:05.218Z,98423.28
2023-11-18T10:54:57.279Z,98422.97
2023-11-18T10:57:48.116Z,98436.75
2023-11-18T11:00:54.503Z,98443.75
2023-11-18T11:03:57.322Z,98446.97
2023-11-18T11:06:54.924Z,98448.88
2023-11-18T11:09:47.207Z,98452.69
2023-11-18T11:12:54.264Z,98455.72
2023-11-18T11:15:52.163Z,98462.00
2023-11-18T11:18:54.630Z,98477.00
2023-11-18T11:21:56.667Z,98472.34
2023-11-18T11:25:10.516Z,98469.16
2023-11-18T11:28:16.754Z,98484.31
2023-11-18T11:31:19.474Z,98486.09
2023-11-18T11:34:21.666Z,98483.69
2023-11-18T11:37:13.359Z,98488.69
2023-11-18T11:40:11.265Z,98492.34
2023-11-18T11:43:05.992Z,98493.94
2023-11-18T11:45:57.074Z,98500.84
2023-11-18T11:48:49.069Z,98498.16
2023-11-18T11:52:04.673Z,98510.81
2023-11-18T11:55:14.449Z,98504.56
2023-11-18T11:58:07.663Z,98506.47
2023-11-18T12:01:08.713Z,98516.09
2023-11-18T12:04:08.299Z,98510.75
2023-11-18T12:07:09.239Z,98504.84
2023-11-18T12:10:14.824Z,98513.16
2023-11-18T12:13:22.518Z,98512.72
2023-11-18T12:16:17.568Z,98524.06
2023-11-18T12:19:45.921Z,98516.38
2023-11-18T12:23:16.132Z,98528.53
2023-11-18T12:26:41.420Z,98534.00
2023-11-18T12:29:35.366Z,98538.59
2023-11-18T12:32:57.201Z,98550.13
2023-11-18T12:36:02.672Z,98550.41
2023-11-18T12:39:52.093Z,98552.47
2023-11-18T12:43:11.613Z,98556.94
2023-11-18T12:46:46.205Z,98559.81
2023-11-18T12:49:42.282Z,98561.06
2023-11-18T12:52:34.182Z,98566.47
2023-11-18T12:55:27.646Z,98571.59
2023-11-18T12:58:19.237Z,98584.06
2023-11-18T13:01:15.451Z,98583.53
2023-11-18T13:04:06.648Z,98589.63
2023-11-18T13:06:59.324Z,98589.13
2023-11-18T13:09:50.904Z,98580.75
2023-11-18T13:12:43.608Z,98583.31
2023-11-18T13:15:35.526Z,98578.06
2023-11-18T13:18:27.766Z,98576.31
2023-11-18T13:21:21.546Z,98576.94
2023-11-18T13:24:13.361Z,98594.75
2023-11-18T13:27:05.513Z,98594.88
2023-11-18T13:29:56.406Z,98606.91
2023-11-18T13:32:47.460Z,98607.06
2023-11-18T13:35:38.375Z,98605.75
2023-11-18T13:38:30.473Z,98614.34
2023-11-18T13:41:33.767Z,98612.88
2023-11-18T13:44:40.698Z,98616.53
2023-11-18T13:47:33.729Z,98612.50
2023-11-18T13:50:26.204Z,98628.00
2023-11-18T13:53:17.395Z,98634.72
2023-11-18T13:56:10.345Z,98641.50
2023-11-18T13:59:01.316Z,98657.13
2023-11-18T14:01:57.442Z,98641.09
2023-11-18T14:04:49.737Z,98643.16
2023-11-18T14:07:40.910Z,98650.19
2023-11-18T14:10:31.664Z,98659.63
2023-11-18T14:13:23.323Z,98659.63
2023-11-18T14:16:14.504Z,98655.59
2023-11-18T14:19:06.867Z,98665.03
2023-11-18T14:21:58.604Z,98667.75
2023-11-18T14:24:49.406Z,98670.44
2023-11-18T14:27:40.136Z,98658.59
2023-11-18T14:30:31.461Z,98667.38
2023-11-18T14:33:22.228Z,98666.69
2023-11-18T14:36:12.962Z,98674.38
2023-11-18T14:39:04.591Z,98671.00
2023-11-18T14:41:55.615Z,98683.03
2023-11-18T14:44:46.424Z,98681.41
2023-11-18T14:47:37.304Z,98673.56
2023-11-18T14:50:28.890Z,98684.63
2023-11-18T14:53:20.457Z,98666.53
2023-11-18T14:56:11.879Z,98674.22
2023-11-18T14:59:02.662Z,98666.53
2023-11-18T15:01:58.212Z,98676.38
2023-11-18T15:04:49.484Z,98669.78
2023-11-18T15:07:40.633Z,98685.16
2023-11-18T15:10:31.438Z,98678.09
2023-11-18T15:13:22.162Z,98684.88
2023-11-18T15:16:12.987Z,98689.47
2023-11-18T15:19:04.633Z,98697.41
2023-11-18T15:21:55.324Z,98690.53
2023-11-18T15:24:48.762Z,98693.09
2023-11-18T15:27:45.530Z,98696.34
2023-11-18T15:30:40.877Z,98710.59
2023-11-18T15:33:32.830Z,98706.16
2023-11-18T15:36:24.468Z,98724.19
2023-11-18T15:39:16.060Z,98719.91
2023-11-18T15:42:07.020Z,98721.22
2023-11-18T15:44:58.465Z,98721.09
2023-11-18T15:47:50.495Z,98709.22
2023-11-18T15:50:41.274Z,98717.56
2023-11-18T15:53:32.052Z,98725.94
2023-11-18T15:56:23.939Z,98715.53
2023-11-18T15:59:15.512Z,98724.00
2023-11-18T16:02:06.883Z,98716.47
2023-11-18T16:04:57.789Z,98728.50
2023-11-18T16:07:55.500Z,98726.72
2023-11-18T16:10:46.502Z,98728.50
2023-11-18T16:13:37.263Z,98730.38
2023-11-18T16:16:28.651Z,98731.31
2023-11-18T16:19:20.962Z,98719.47
2023-11-18T16:22:11.739Z,98720.13
2023-11-18T16:25:05.248Z,98728.50
2023-11-18T16:27:59.535Z,98723.22
2023-11-18T16:30:51.964Z,98724.28
2023-11-18T16:33:44.570Z,98732.81
2023-11-18T16:36:35.383Z,98730.25
2023-11-18T16:39:27.271Z,98721.59
2023-11-18T16:42:20.134Z,98729.81
2023-11-18T16:45:12.611Z,98731.56
2023-11-18T16:48:05.723Z,98731.03
2023-11-18T16:50:56.628Z,98734.53
2023-11-18T16:53:47.383Z,98730.09
2023-11-18T16:56:38.140Z,98718.88
2023-11-18T16:59:29.051Z,98735.56
2023-11-18T17:02:20.546Z,98743.25
2023-11-18T17:05:11.536Z,98737.19
2023-11-18T17:08:02.832Z,98744.22
2023-11-18T17:10:55.051Z,98746.63
2023-11-18T17:13:46.011Z,98737.19
2023-11-18T17:16:36.703Z,98740.56
2023-11-18T17:19:27.560Z,98730.34
2023-11-18T17:22:18.290Z,98725.69
2023-11-18T17:25:11.756Z,98738.38
2023-11-18T17:28:05.674Z,98724.38
2023-11-18T17:30:56.847Z,98735.13
2023-11-18T17:33:47.565Z,98731.47
2023-11-18T17:36:38.358Z,98746.03
2023-11-18T17:39:29.129Z,98737.81
2023-11-18T17:42:19.950Z,98744.59
2023-11-18T17:45:13.102Z,98744.59
2023-11-18T17:48:07.348Z,98747.94
2023-11-18T17:51:00.059Z,98744.72
2023-11-18T17:53:50.929Z,98746.63
2023-11-18T17:56:42.633Z,98745.66
2023-11-18T17:59:33.410Z,98740.53
2023-11-18T18:02:24.320Z,98744.16
2023-11-18T18:05:15.204Z,98757.78
2023-11-18T18:08:06.299Z,98759.00
2023-11-18T18:10:57.117Z,98765.09
2023-11-18T18:13:47.853Z,98759.97
2023-11-18T18:16:38.584Z,98750.38
2023-11-18T18:19:29.325Z,98754.84
2023-11-18T18:22:20.079Z,98757.28
2023-11-18T18:25:11.129Z,98763.59
2023-11-18T18:28:02.056Z,98741.50
2023-11-18T18:30:54.595Z,98746.63
2023-11-18T18:33:45.735Z,98748.47
2023-11-18T18:36:37.304Z,98746.06
2023-11-18T18:39:28.084Z,98753.47
2023-11-18T18:42:18.843Z,98750.00
2023-11-18T18:45:11.465Z,98756.97
2023-11-18T18:48:03.455Z,98756.88
2023-11-18T18:50:54.221Z,98762.78
2023-11-18T18:53:46.640Z,98756.16
2023-11-18T18:56:39.164Z,98759.44
2023-11-18T18:59:30.051Z,98751.59
2023-11-18T19:02:21.934Z,98742.94
2023-11-18T19:05:15.832Z,98744.72
2023-11-18T19:08:06.593Z,98740.38
2023-11-18T19:10:57.736Z,98726.66
2023-11-18T19:13:48.522Z,98723.28
2023-11-18T19:16:41.990Z,98724.38
2023-11-18T19:19:34.170Z,98734.47
2023-11-18T19:22:25.520Z,98733.66
2023-11-18T19:25:17.063Z,98730.41
2023-11-18T19:28:10.591Z,98723.16
2023-11-18T19:31:01.445Z,98717.09
2023-11-18T19:33:52.214Z,98710.84
2023-11-18T19:36:42.979Z,98705.47
2023-11-18T19:39:40.432Z,98710.31
2023-11-18T19:42:31.630Z,98718.81
2023-11-18T19:45:23.224Z,98709.25
2023-11-18T19:48:14.744Z,98704.75
2023-11-18T19:51:08.627Z,98705.56
2023-11-18T19:53:59.646Z,98691.16
2023-11-18T19:56:50.515Z,98696.91
2023-11-18T19:59:41.380Z,98697.06
2023-11-18T20:02:32.425Z,98686.97
2023-11-18T20:05:23.532Z,98694.78
2023-11-18T20:08:14.382Z,98683.91
2023-11-18T20:11:10.667Z,98685.50
2023-11-18T20:14:01.696Z,98689.03
2023-11-18T20:16:52.841Z,98679.75
2023-11-18T20:19:43.509Z,98688.22
2023-11-18T20:22:36.588Z,98694.16
2023-11-18T20:25:28.162Z,98701.03
2023-11-18T20:28:18.898Z,98693.63
2023-11-18T20:31:10.117Z,98679.47
2023-11-18T20:34:00.917Z,98693.38
2023-11-18T20:36:51.902Z,98695.28
2023-11-18T20:39:42.657Z,98695.56
2023-11-18T20:42:33.367Z,98689.47
2023-11-18T20:45:25.157Z,98675.88
2023-11-18T20:48:15.894Z,98671.72
2023-11-18T20:51:08.917Z,98681.78
2023-11-18T20:54:03.867Z,98682.75
2023-11-18T20:56:54.678Z,98675.22
2023-11-18T20:59:45.406Z,98668.47
2023-11-18T21:02:37.111Z,98645.28
2023-11-18T21:05:28.395Z,98651.88
2023-11-18T21:08:19.367Z,98655.22
2023-11-18T21:11:10.375Z,98655.09
2023-11-18T21:14:01.286Z,98664.03
2023-11-18T21:16:52.234Z,98674.38
2023-11-18T21:19:43.269Z,98667.81
2023-11-18T21:22:34.047Z,98655.16
2023-11-18T21:25:24.843Z,98650.19
2023-11-18T21:28:15.542Z,98643.00
2023-11-18T21:31:08.210Z,98637.75
2023-11-18T21:33:59.230Z,98633.28
2023-11-18T21:36:49.934Z,98616.31
2023-11-18T21:39:40.703Z,98601.75
2023-11-18T21:42:32.406Z,98598.22
2023-11-18T21:45:28.654Z,98604.00
2023-11-18T21:48:22.199Z,98607.06
2023-11-18T21:51:14.744Z,98610.44
2023-11-18T21:54:05.975Z,98601.31
2023-11-18T21:56:56.962Z,98625.97
2023-11-18T21:59:47.790Z,98632.84
2023-11-18T22:02:44.489Z,98633.81
2023-11-18T22:05:35.541Z,98627.06
2023-11-18T22:08:26.335Z,98607.41
2023-11-18T22:11:20.255Z,98605.63
2023-11-18T22:14:11.794Z,98606.28
2023-11-18T22:17:02.615Z,98611.28
2023-11-18T22:19:53.836Z,98616.06
2023-11-18T22:22:44.594Z,98617.59
2023-11-18T22:25:35.323Z,98620.16
2023-11-18T22:28:26.080Z,98621.75
2023-11-18T22:31:17.334Z,98614.22
2023-11-18T22:34:08.184Z,98619.19
2023-11-18T22:36:58.904Z,98610.56
2023-11-18T22:39:49.894Z,98612.19
2023-11-18T22:42:44.232Z,98615.97
2023-11-18T22:45:35.051Z,98598.97
2023-11-18T22:48:26.884Z,98591.41
2023-11-18T22:51:17.817Z,98583.91
2023-11-18T22:54:12.158Z,98580.66
2023-11-18T22:57:03.612Z,98572.34
2023-11-18T22:59:54.317Z,98569.38
2023-11-18T23:02:45.127Z,98573.72
2023-11-18T23:05:37.572Z,98566.34
2023-11-18T23:08:28.427Z,98561.06
2023-11-18T23:11:19.273Z,98567.66
2023-11-18T23:14:10.052Z,98564.13
2023-11-18T23:17:08.225Z,98562.38
2023-11-18T23:20:00.328Z,98570.06
2023-11-18T23:22:52.006Z,98561.72
2023-11-18T23:25:42.753Z,98558.34
2023-11-18T23:28:34.430Z,98557.72
2023-11-18T23:31:26.218Z,98554.34
2023-11-18T23:34:17.867Z,98536.53
2023-11-18T23:37:09.072Z,98534.16
2023-11-18T23:39:59.822Z,98537.22
2023-11-18T23:42:50.717Z,98544.38
2023-11-18T23:45:42.505Z,98541.81
2023-11-18T23:48:38.095Z,98533.47
2023-11-18T23:51:29.968Z,98534.16
2023-11-18T23:54:24.986Z,98522.94
2023-11-18T23:57:16.244Z,98529.81
